Aérodrome :
LOGIN :

S'inscrire | Disclaimer

   EN    FR    IT 

 










Légende :    VFR   VFR Marginal   IFR   IFR Intensif   IFR Très Intensif
Visi : 
Plafond : 
>= 8 km
>= 3000ft
5 à 8 km
1000 à 3000 ft
1500m à 5 km
500 à 1000 ft
800 à 1500m
200 à 500 ft
< 800m
< 200 ft
Symboles :   Orages  Brouillard  Fortes neiges  Fortes précipitations  Vent > 20 kt
SIGMETs :   Divers  Orages  Givrage  Turbulence  Onde Orograph.  Cendres Volcan.






- Altitude de l'aérodrome : 274 ft
- Code IATA : PUY


LDPL - Pula

DERNIER METAR :
  • 312130Z 01003KT 340V060 7000 MIFG NSC 08/07 Q1022

METARs EXPIRÉS :
  • 312100Z 24002KT 4000 MIFG BR NSC 08/07 Q1022 NOSIG
  • 312030Z 00000KT 6000 MIFG NSC 08/07 Q1022 TEMPO 4000 BR
  • 312000Z VRB01KT 6000 MIFG NSC 08/08 Q1021 TEMPO 4000 BR
  • 311930Z VRB01KT 6000 MIFG NSC 09/08 Q1021 TEMPO 4000 BR
  • 311900Z 29002KT 7000 MIFG NSC 09/08 Q1021 TEMPO 4000 BR

TAF TAF LDPL
Valide du 31 à 18h jusqu'au 01 à 18h UTC


311725Z 3118/0118 VRB02KT 7000 NSC TX18/0112Z TN08/0105Z
TEMPO 3118/0107 3000 MIFG BR
PROB30
TEMPO 0100/0106 1200 BCFG
BECMG 0109/0111 28008KT
PROB30
TEMPO 0112/0118 BKN010
BECMG 0116/0118 VRB02KT



MET'MAP, la Météo Aéronautique d'un coup d'oeil ! - Copyright ORBIFLY Décembre 2007 - Disclaimer

ORBIFLY MET'MAP TEAM :

Programmation & Développement : Alexandra Zaïnal
Sur une idée originale de : Baudouin d'Aumeries
Assistance à la programmation : Marc-Olivier Méhu
Soutien technique & logistique : Manuel Goepfert

Contact : metmap@orbifly.com




SOURCES & CREDITS :

   NOAA